Bucks, Alabama
Current Conditions -  °F | °C
As of 7:56 AM on Thursday 30 Oct 2014 (Local Time) from KMOB Reporting Station
Few Clouds Few Clouds  
Wind Chill: 55°   Ceiling: Unl
Heat Index: 55°   Visibility: 10mi
Dew Point: 48°   Wind: 9mph
Humidity: 77%   Direction: 10°N
Pressure: 30.1"   Gusts: NA
Location:  31.01°N, 88.02°W
Report Text: KMOB 301256Z 01008KT 10SM FEW070 FEW200 13/09 A3010 RMK AO2 SLP191 T01280089
Loading
Personal Weather Stations






























Interactive Weather Map
Tropical Storm Tracking
New forecast layout! Learn more

10-Day Weather Forecast

Advertisements
Track Severe Weather on mobile